Bostwick, Georgia
Current Conditions -  °F | °C
As of 3:51 PM on Monday 24 Nov 2014 (Local Time) from KAHN Reporting Station
Clear Clear  
Wind Chill: 75°   Ceiling: Unl
Heat Index: 75°   Visibility: 10mi
Dew Point: 53°   Wind: 7mph
Humidity: 46%   Direction: NA
Pressure: 29.8"   Gusts: NA
Location:  33.74°N, 83.51°W
Report Text: KAHN 242051Z VRB06KT 10SM CLR 24/12 A2980 RMK AO2 SLP085 T02390117 55001
Loading
Personal Weather Stations






























Interactive Weather Map New forecast layout! Learn more

10-Day Weather Forecast

Advertisements
Track Severe Weather on mobile